Arthur City, TX

7:39 AM CDT on August 20, 2014 (GMT -0500)
Stamper Municipal | Change Station
CLOSE
Current Station
Airport
Location: Hugo,
Elevation: 571 ft
Nearby Weather Stations

Elev 571 ft 34.03 °N, 95.54 °W | Updated 24 minutes ago

Clear
Clear
71 °F
Feels Like 71 °F
N
7
Wind Variable Wind from ESE

Today
High -- | Low -- °F
--% Chance of Precip.
Yesterday
High -- | Low -- °F
Precip. -- in
6:47 AM 8:02 PM
Waning Crescent, 22% visible
Pressure 29.97 in
Visibility 10.0 miles
Clouds Clear
Dew Point 68 °F
Humidity 89%
Rainfall 0.00 in
Snow Depth Not available.
UV 0 out of 12
Pollen 8.40 out of 12
Air Quality Not available.
Flu Activity Not available.
METAR KHHW 201215Z AUTO 11006KT 10SM CLR 22/20 A2997 RMK AO2 T02180200

More Conditions Fewer Conditions

Pressure 29.97 in
Visibility 10.0 miles
Clouds Clear
Dew Point 68 °F
Humidity 89%
Rainfall 0.00 in
Snow Depth Not available.
UV 0 out of 12
Pollen 8.40 out of 12
Air Quality Not available.
Flu Activity Not available.
METAR KHHW 201215Z AUTO 11006KT 10SM CLR 22/20 A2997 RMK AO2 T02180200

More Conditions Fewer Conditions

Nowcast | as of 7:19 am CDT on August 20, 2014

Scattered showers are expected to continue through 9 am CDT north of Interstate 20. Scattered sprinkles are possible elsewhere. Rainfall will be light with any showers with amounts below 1/10 of an inch. South winds will continue at 10 to 20 mph with temperatures slowly warming into the lower to mid 80s through mid morning.

×

10-Day Weather Forecast

Almanac

Astronomy

Aug. 20, 2014 Rise Set
Actual Time 6:47 AM CDT 8:02 PM CDT
Civil Twilight 6:21 AM CDT 8:28 PM CDT
Nautical Twilight 5:50 AM CDT 8:59 PM CDT
Astronomical Twilight 5:17 AM CDT 9:31 PM CDT
Moon 2:32 AM CDT 4:43 PM CDT
Length of Visible Light 14h 07m
Length of Day
13h 15m
Tomorrow will be 1m 54s shorter.
Waning Crescent, 22% of the Moon is Illuminated
Today
Waning Crescent
Aug 25
New
Sep 2
First Quarter
Sep 8
Full
Sep 15
Last Quarter

Today's Extremes

State Highs State Lows

Community

WunderPhotos

Upload Photos

1,745,618 photos uploaded!

Nearby

Snow Depth

Station Depth Elevation
No new snow has been reported.

Earthquake Activity

City Distance Mag. Time & Date
Boley, Oklahoma 120 miles 2.8 11:38 AM CDT
2014-08-14
Minimum magnitude displayed is 2.5.

Coastal Water Temperatures

Place Temperature
No Stations Reporting

Nearby Weather Stations